sensor_id;sensor_type;location;lat;lon;timestamp;temperature;humidity
43665;DHT22;29263;48.172;11.484;2023-07-09T00:01:46;19.20;94.70
43665;DHT22;29263;48.172;11.484;2023-07-09T00:04:12;19.20;94.50
43665;DHT22;29263;48.172;11.484;2023-07-09T00:06:39;19.20;94.80
43665;DHT22;29263;48.172;11.484;2023-07-09T00:09:11;19.20;95.00
43665;DHT22;29263;48.172;11.484;2023-07-09T00:11:37;19.20;95.20
43665;DHT22;29263;48.172;11.484;2023-07-09T00:14:05;19.10;95.40
43665;DHT22;29263;48.172;11.484;2023-07-09T00:16:31;19.10;95.50
43665;DHT22;29263;48.172;11.484;2023-07-09T00:18:57;19.00;95.70
43665;DHT22;29263;48.172;11.484;2023-07-09T00:21:23;19.00;96.00
43665;DHT22;29263;48.172;11.484;2023-07-09T00:23:49;18.90;96.00
43665;DHT22;29263;48.172;11.484;2023-07-09T00:26:15;18.90;96.00
43665;DHT22;29263;48.172;11.484;2023-07-09T00:28:42;18.80;96.20
43665;DHT22;29263;48.172;11.484;2023-07-09T00:31:12;18.80;96.50
43665;DHT22;29263;48.172;11.484;2023-07-09T00:33:42;18.70;96.80
43665;DHT22;29263;48.172;11.484;2023-07-09T00:36:29;18.60;97.00
43665;DHT22;29263;48.172;11.484;2023-07-09T00:38:57;18.50;97.10
43665;DHT22;29263;48.172;11.484;2023-07-09T00:41:25;18.50;97.20
43665;DHT22;29263;48.172;11.484;2023-07-09T00:43:52;18.40;97.60
43665;DHT22;29263;48.172;11.484;2023-07-09T00:48:49;18.40;97.90
43665;DHT22;29263;48.172;11.484;2023-07-09T00:51:18;18.30;98.10
43665;DHT22;29263;48.172;11.484;2023-07-09T00:53:49;18.30;98.20
43665;DHT22;29263;48.172;11.484;2023-07-09T00:56:25;18.30;98.40
43665;DHT22;29263;48.172;11.484;2023-07-09T00:58:52;18.30;98.50
43665;DHT22;29263;48.172;11.484;2023-07-09T01:01:20;18.30;98.70
43665;DHT22;29263;48.172;11.484;2023-07-09T01:03:53;18.30;98.90
43665;DHT22;29263;48.172;11.484;2023-07-09T01:06:39;18.30;98.80
43665;DHT22;29263;48.172;11.484;2023-07-09T01:09:07;18.30;98.80
43665;DHT22;29263;48.172;11.484;2023-07-09T01:11:33;18.30;98.90
43665;DHT22;29263;48.172;11.484;2023-07-09T01:14:01;18.30;99.10
43665;DHT22;29263;48.172;11.484;2023-07-09T01:16:30;18.30;99.50
43665;DHT22;29263;48.172;11.484;2023-07-09T01:18:57;18.30;99.70
43665;DHT22;29263;48.172;11.484;2023-07-09T01:21:23;18.30;99.80
43665;DHT22;29263;48.172;11.484;2023-07-09T01:23:49;18.30;99.60
43665;DHT22;29263;48.172;11.484;2023-07-09T01:26:21;18.30;99.50
43665;DHT22;29263;48.172;11.484;2023-07-09T01:28:47;18.20;99.80
43665;DHT22;29263;48.172;11.484;2023-07-09T01:31:14;18.20;99.90
43665;DHT22;29263;48.172;11.484;2023-07-09T01:33:41;18.20;99.90
43665;DHT22;29263;48.172;11.484;2023-07-09T01:36:11;18.20;99.90
43665;DHT22;29263;48.172;11.484;2023-07-09T01:38:39;18.20;99.90
43665;DHT22;29263;48.172;11.484;2023-07-09T01:41:05;18.20;99.90
43665;DHT22;29263;48.172;11.484;2023-07-09T01:43:34;18.20;99.90
43665;DHT22;29263;48.172;11.484;2023-07-09T01:46:00;18.20;99.90
43665;DHT22;29263;48.172;11.484;2023-07-09T01:48:26;18.10;99.90
43665;DHT22;29263;48.172;11.484;2023-07-09T01:50:53;18.10;99.90
43665;DHT22;29263;48.172;11.484;2023-07-09T01:53:21;18.10;99.90
43665;DHT22;29263;48.172;11.484;2023-07-09T01:55:51;18.10;99.90
43665;DHT22;29263;48.172;11.484;2023-07-09T01:58:17;18.10;99.90
43665;DHT22;29263;48.172;11.484;2023-07-09T02:00:43;18.10;99.90
43665;DHT22;29263;48.172;11.484;2023-07-09T02:03:10;18.10;99.90
43665;DHT22;29263;48.172;11.484;2023-07-09T02:05:36;18.10;99.90
43665;DHT22;29263;48.172;11.484;2023-07-09T02:08:03;18.10;99.90
43665;DHT22;29263;48.172;11.484;2023-07-09T02:10:28;18.10;99.90
43665;DHT22;29263;48.172;11.484;2023-07-09T02:12:54;18.10;99.90
43665;DHT22;29263;48.172;11.484;2023-07-09T02:15:20;18.10;99.90
43665;DHT22;29263;48.172;11.484;2023-07-09T02:17:45;18.10;99.90
43665;DHT22;29263;48.172;11.484;2023-07-09T02:20:12;18.10;99.90
43665;DHT22;29263;48.172;11.484;2023-07-09T02:22:38;18.00;99.90
43665;DHT22;29263;48.172;11.484;2023-07-09T02:25:05;18.00;99.90
43665;DHT22;29263;48.172;11.484;2023-07-09T02:27:31;18.00;99.90
43665;DHT22;29263;48.172;11.484;2023-07-09T02:29:58;18.00;99.90
43665;DHT22;29263;48.172;11.484;2023-07-09T02:32:26;18.00;99.90
43665;DHT22;29263;48.172;11.484;2023-07-09T02:34:52;18.00;99.90
43665;DHT22;29263;48.172;11.484;2023-07-09T02:37:20;18.00;99.90
43665;DHT22;29263;48.172;11.484;2023-07-09T02:39:46;18.00;99.90
43665;DHT22;29263;48.172;11.484;2023-07-09T02:42:13;18.00;99.90
43665;DHT22;29263;48.172;11.484;2023-07-09T02:44:41;18.00;99.90
43665;DHT22;29263;48.172;11.484;2023-07-09T02:47:07;18.00;99.90
43665;DHT22;29263;48.172;11.484;2023-07-09T02:49:34;18.00;99.90
43665;DHT22;29263;48.172;11.484;2023-07-09T02:51:59;18.00;99.90
43665;DHT22;29263;48.172;11.484;2023-07-09T02:54:26;18.00;99.90
43665;DHT22;29263;48.172;11.484;2023-07-09T02:56:51;18.00;99.90
43665;DHT22;29263;48.172;11.484;2023-07-09T02:59:17;18.00;99.90
43665;DHT22;29263;48.172;11.484;2023-07-09T03:01:43;18.00;99.90
43665;DHT22;29263;48.172;11.484;2023-07-09T03:04:09;18.00;99.90
43665;DHT22;29263;48.172;11.484;2023-07-09T03:06:36;18.00;99.90
43665;DHT22;29263;48.172;11.484;2023-07-09T03:09:03;18.00;99.90
43665;DHT22;29263;48.172;11.484;2023-07-09T03:11:30;18.00;99.90
43665;DHT22;29263;48.172;11.484;2023-07-09T03:13:57;18.00;99.90
43665;DHT22;29263;48.172;11.484;2023-07-09T03:16:23;18.00;99.90
43665;DHT22;29263;48.172;11.484;2023-07-09T03:18:49;18.00;99.90
43665;DHT22;29263;48.172;11.484;2023-07-09T03:21:15;18.00;99.90
43665;DHT22;29263;48.172;11.484;2023-07-09T03:23:41;17.90;99.90
43665;DHT22;29263;48.172;11.484;2023-07-09T03:26:07;18.00;99.90
43665;DHT22;29263;48.172;11.484;2023-07-09T03:28:33;17.90;99.90
43665;DHT22;29263;48.172;11.484;2023-07-09T03:30:59;17.90;99.90
43665;DHT22;29263;48.172;11.484;2023-07-09T03:33:25;17.80;99.90
43665;DHT22;29263;48.172;11.484;2023-07-09T03:35:51;17.90;99.90
43665;DHT22;29263;48.172;11.484;2023-07-09T03:38:18;17.90;99.90
43665;DHT22;29263;48.172;11.484;2023-07-09T03:40:43;17.90;99.90
43665;DHT22;29263;48.172;11.484;2023-07-09T03:43:10;17.90;99.90
43665;DHT22;29263;48.172;11.484;2023-07-09T03:45:37;17.90;99.90
43665;DHT22;29263;48.172;11.484;2023-07-09T03:48:03;17.90;99.90
43665;DHT22;29263;48.172;11.484;2023-07-09T03:50:29;17.90;99.90
43665;DHT22;29263;48.172;11.484;2023-07-09T03:52:55;17.90;99.90
43665;DHT22;29263;48.172;11.484;2023-07-09T03:55:21;17.80;99.90
43665;DHT22;29263;48.172;11.484;2023-07-09T03:57:47;17.80;99.90
43665;DHT22;29263;48.172;11.484;2023-07-09T04:00:13;17.80;99.90
43665;DHT22;29263;48.172;11.484;2023-07-09T04:02:40;17.80;99.90
43665;DHT22;29263;48.172;11.484;2023-07-09T04:05:07;17.80;99.90
43665;DHT22;29263;48.172;11.484;2023-07-09T04:07:34;17.90;99.90
43665;DHT22;29263;48.172;11.484;2023-07-09T04:09:59;17.90;99.90
43665;DHT22;29263;48.172;11.484;2023-07-09T04:12:25;17.90;99.90
43665;DHT22;29263;48.172;11.484;2023-07-09T04:14:51;17.90;99.90
43665;DHT22;29263;48.172;11.484;2023-07-09T04:17:16;17.90;99.90
43665;DHT22;29263;48.172;11.484;2023-07-09T04:19:42;17.90;99.90
43665;DHT22;29263;48.172;11.484;2023-07-09T04:22:10;17.80;99.90
43665;DHT22;29263;48.172;11.484;2023-07-09T04:24:35;17.80;99.90
43665;DHT22;29263;48.172;11.484;2023-07-09T04:27:01;17.90;99.90
43665;DHT22;29263;48.172;11.484;2023-07-09T04:29:29;17.80;99.90
43665;DHT22;29263;48.172;11.484;2023-07-09T04:31:54;17.80;99.90
43665;DHT22;29263;48.172;11.484;2023-07-09T04:34:20;17.80;99.90
43665;DHT22;29263;48.172;11.484;2023-07-09T04:36:46;17.90;99.90
43665;DHT22;29263;48.172;11.484;2023-07-09T04:39:11;17.90;99.90
43665;DHT22;29263;48.172;11.484;2023-07-09T04:41:37;17.90;99.90
43665;DHT22;29263;48.172;11.484;2023-07-09T04:44:02;18.00;99.90
43665;DHT22;29263;48.172;11.484;2023-07-09T04:46:28;18.00;99.90
43665;DHT22;29263;48.172;11.484;2023-07-09T04:48:54;18.10;99.90
43665;DHT22;29263;48.172;11.484;2023-07-09T04:51:21;18.10;99.90
43665;DHT22;29263;48.172;11.484;2023-07-09T04:53:47;18.10;99.90
43665;DHT22;29263;48.172;11.484;2023-07-09T04:56:12;18.20;99.90
43665;DHT22;29263;48.172;11.484;2023-07-09T04:58:38;18.30;99.90
43665;DHT22;29263;48.172;11.484;2023-07-09T05:01:04;18.30;99.90
43665;DHT22;29263;48.172;11.484;2023-07-09T05:03:29;18.30;99.90
43665;DHT22;29263;48.172;11.484;2023-07-09T05:05:55;18.40;99.90
43665;DHT22;29263;48.172;11.484;2023-07-09T05:08:20;18.30;99.90
43665;DHT22;29263;48.172;11.484;2023-07-09T05:10:51;18.40;99.90
43665;DHT22;29263;48.172;11.484;2023-07-09T05:13:17;18.50;99.90
43665;DHT22;29263;48.172;11.484;2023-07-09T05:15:44;18.50;99.90
43665;DHT22;29263;48.172;11.484;2023-07-09T05:18:14;18.50;99.90
43665;DHT22;29263;48.172;11.484;2023-07-09T05:20:41;18.70;99.90
43665;DHT22;29263;48.172;11.484;2023-07-09T05:23:10;18.80;99.90
43665;DHT22;29263;48.172;11.484;2023-07-09T05:25:36;18.90;99.90
43665;DHT22;29263;48.172;11.484;2023-07-09T05:28:03;19.00;99.90
43665;DHT22;29263;48.172;11.484;2023-07-09T05:30:29;19.10;99.90
43665;DHT22;29263;48.172;11.484;2023-07-09T05:32:55;19.20;99.90
43665;DHT22;29263;48.172;11.484;2023-07-09T05:35:25;19.40;99.90
43665;DHT22;29263;48.172;11.484;2023-07-09T05:37:55;19.50;99.90
43665;DHT22;29263;48.172;11.484;2023-07-09T05:40:20;19.70;99.90
43665;DHT22;29263;48.172;11.484;2023-07-09T05:42:48;19.80;99.90
43665;DHT22;29263;48.172;11.484;2023-07-09T05:45:14;19.90;99.90
43665;DHT22;29263;48.172;11.484;2023-07-09T05:47:40;20.00;99.90
43665;DHT22;29263;48.172;11.484;2023-07-09T05:50:06;20.30;99.90
43665;DHT22;29263;48.172;11.484;2023-07-09T05:52:31;20.40;99.60
43665;DHT22;29263;48.172;11.484;2023-07-09T05:54:57;20.60;99.00
43665;DHT22;29263;48.172;11.484;2023-07-09T05:57:23;20.80;98.90
43665;DHT22;29263;48.172;11.484;2023-07-09T05:59:49;21.00;98.20
43665;DHT22;29263;48.172;11.484;2023-07-09T06:02:17;21.10;97.70
43665;DHT22;29263;48.172;11.484;2023-07-09T06:04:43;21.20;97.10
43665;DHT22;29263;48.172;11.484;2023-07-09T06:07:09;21.40;97.20
43665;DHT22;29263;48.172;11.484;2023-07-09T06:09:35;21.50;97.00
43665;DHT22;29263;48.172;11.484;2023-07-09T06:12:02;21.60;95.90
43665;DHT22;29263;48.172;11.484;2023-07-09T06:14:28;21.80;95.70
43665;DHT22;29263;48.172;11.484;2023-07-09T06:16:53;22.00;95.40
43665;DHT22;29263;48.172;11.484;2023-07-09T06:19:19;22.30;95.30
43665;DHT22;29263;48.172;11.484;2023-07-09T06:21:44;22.50;94.40
43665;DHT22;29263;48.172;11.484;2023-07-09T06:24:10;22.70;93.20
43665;DHT22;29263;48.172;11.484;2023-07-09T06:26:36;23.00;92.40
43665;DHT22;29263;48.172;11.484;2023-07-09T06:29:02;23.20;92.20
43665;DHT22;29263;48.172;11.484;2023-07-09T06:31:27;23.40;92.10
43665;DHT22;29263;48.172;11.484;2023-07-09T06:33:53;23.60;91.90
43665;DHT22;29263;48.172;11.484;2023-07-09T06:36:19;23.70;90.60
43665;DHT22;29263;48.172;11.484;2023-07-09T06:38:45;23.90;87.70
43665;DHT22;29263;48.172;11.484;2023-07-09T06:41:12;24.00;87.00
43665;DHT22;29263;48.172;11.484;2023-07-09T06:43:38;24.10;88.40
43665;DHT22;29263;48.172;11.484;2023-07-09T06:46:06;24.20;88.50
43665;DHT22;29263;48.172;11.484;2023-07-09T06:48:32;24.40;88.10
43665;DHT22;29263;48.172;11.484;2023-07-09T06:50:59;24.60;85.10
43665;DHT22;29263;48.172;11.484;2023-07-09T06:53:25;24.80;85.40
43665;DHT22;29263;48.172;11.484;2023-07-09T06:55:51;24.90;84.30
43665;DHT22;29263;48.172;11.484;2023-07-09T06:58:23;25.10;80.30
43665;DHT22;29263;48.172;11.484;2023-07-09T07:00:51;25.20;80.60
43665;DHT22;29263;48.172;11.484;2023-07-09T07:03:17;25.30;78.00
43665;DHT22;29263;48.172;11.484;2023-07-09T07:05:46;25.50;77.90
43665;DHT22;29263;48.172;11.484;2023-07-09T07:08:16;25.70;77.70
43665;DHT22;29263;48.172;11.484;2023-07-09T07:10:42;25.80;77.60
43665;DHT22;29263;48.172;11.484;2023-07-09T07:13:08;26.00;74.40
43665;DHT22;29263;48.172;11.484;2023-07-09T07:15:36;26.20;74.90
43665;DHT22;29263;48.172;11.484;2023-07-09T07:18:02;26.20;74.40
43665;DHT22;29263;48.172;11.484;2023-07-09T07:20:29;26.20;72.60
43665;DHT22;29263;48.172;11.484;2023-07-09T07:22:55;26.40;74.40
43665;DHT22;29263;48.172;11.484;2023-07-09T07:25:21;26.50;71.20
43665;DHT22;29263;48.172;11.484;2023-07-09T07:27:47;26.60;69.50
43665;DHT22;29263;48.172;11.484;2023-07-09T07:30:13;26.70;68.40
43665;DHT22;29263;48.172;11.484;2023-07-09T07:32:43;26.80;67.90
43665;DHT22;29263;48.172;11.484;2023-07-09T07:35:09;27.00;66.90
43665;DHT22;29263;48.172;11.484;2023-07-09T07:37:35;27.10;66.40
43665;DHT22;29263;48.172;11.484;2023-07-09T07:40:01;27.20;66.80
43665;DHT22;29263;48.172;11.484;2023-07-09T07:42:26;27.30;66.70
43665;DHT22;29263;48.172;11.484;2023-07-09T07:44:52;27.40;65.50
43665;DHT22;29263;48.172;11.484;2023-07-09T07:47:19;27.60;65.80
43665;DHT22;29263;48.172;11.484;2023-07-09T07:49:44;27.60;63.90
43665;DHT22;29263;48.172;11.484;2023-07-09T07:52:10;27.80;63.80
43665;DHT22;29263;48.172;11.484;2023-07-09T07:54:36;27.80;63.20
43665;DHT22;29263;48.172;11.484;2023-07-09T07:57:02;27.90;61.70
43665;DHT22;29263;48.172;11.484;2023-07-09T07:59:28;28.00;61.10
43665;DHT22;29263;48.172;11.484;2023-07-09T08:01:54;28.10;61.60
43665;DHT22;29263;48.172;11.484;2023-07-09T08:04:19;28.20;61.50
43665;DHT22;29263;48.172;11.484;2023-07-09T08:06:45;28.20;62.90
43665;DHT22;29263;48.172;11.484;2023-07-09T08:09:11;28.20;61.50
43665;DHT22;29263;48.172;11.484;2023-07-09T08:11:37;28.40;59.20
43665;DHT22;29263;48.172;11.484;2023-07-09T08:14:02;28.50;59.40
43665;DHT22;29263;48.172;11.484;2023-07-09T08:16:28;28.60;59.80
43665;DHT22;29263;48.172;11.484;2023-07-09T08:18:54;28.80;59.20
43665;DHT22;29263;48.172;11.484;2023-07-09T08:21:20;28.90;58.20
43665;DHT22;29263;48.172;11.484;2023-07-09T08:23:46;28.90;57.70
43665;DHT22;29263;48.172;11.484;2023-07-09T08:26:11;29.00;59.00
43665;DHT22;29263;48.172;11.484;2023-07-09T08:28:37;29.10;58.10
43665;DHT22;29263;48.172;11.484;2023-07-09T08:31:03;29.20;58.60
43665;DHT22;29263;48.172;11.484;2023-07-09T08:33:29;29.30;57.30
43665;DHT22;29263;48.172;11.484;2023-07-09T08:35:55;29.40;55.60
43665;DHT22;29263;48.172;11.484;2023-07-09T08:38:21;29.40;56.00
43665;DHT22;29263;48.172;11.484;2023-07-09T08:40:59;29.60;56.70
43665;DHT22;29263;48.172;11.484;2023-07-09T08:43:33;29.80;57.20
43665;DHT22;29263;48.172;11.484;2023-07-09T08:47:02;29.80;56.30
43665;DHT22;29263;48.172;11.484;2023-07-09T08:49:20;30.00;55.50
43665;DHT22;29263;48.172;11.484;2023-07-09T08:51:48;30.10;55.80
43665;DHT22;29263;48.172;11.484;2023-07-09T08:54:25;30.00;52.10
43665;DHT22;29263;48.172;11.484;2023-07-09T08:56:52;30.00;53.90
43665;DHT22;29263;48.172;11.484;2023-07-09T08:59:19;30.00;54.30
43665;DHT22;29263;48.172;11.484;2023-07-09T09:01:53;30.00;54.30
43665;DHT22;29263;48.172;11.484;2023-07-09T09:04:28;30.10;52.80
43665;DHT22;29263;48.172;11.484;2023-07-09T09:07:20;30.20;52.20
43665;DHT22;29263;48.172;11.484;2023-07-09T09:09:57;30.30;51.90
43665;DHT22;29263;48.172;11.484;2023-07-09T09:12:37;30.50;51.50
43665;DHT22;29263;48.172;11.484;2023-07-09T09:17:38;30.70;51.40
43665;DHT22;29263;48.172;11.484;2023-07-09T09:22:44;30.80;50.70
43665;DHT22;29263;48.172;11.484;2023-07-09T09:27:39;30.70;49.00
43665;DHT22;29263;48.172;11.484;2023-07-09T09:30:11;30.70;49.30
43665;DHT22;29263;48.172;11.484;2023-07-09T09:33:09;30.70;49.80
43665;DHT22;29263;48.172;11.484;2023-07-09T09:35:35;30.90;50.80
43665;DHT22;29263;48.172;11.484;2023-07-09T09:38:02;30.90;48.50
43665;DHT22;29263;48.172;11.484;2023-07-09T09:40:35;30.90;48.60
43665;DHT22;29263;48.172;11.484;2023-07-09T09:43:02;30.90;49.90
43665;DHT22;29263;48.172;11.484;2023-07-09T09:45:37;30.90;49.90
43665;DHT22;29263;48.172;11.484;2023-07-09T09:48:28;30.90;49.70
43665;DHT22;29263;48.172;11.484;2023-07-09T09:50:55;30.90;49.50
43665;DHT22;29263;48.172;11.484;2023-07-09T09:53:26;31.00;48.30
43665;DHT22;29263;48.172;11.484;2023-07-09T09:55:53;31.00;48.90
43665;DHT22;29263;48.172;11.484;2023-07-09T09:58:24;31.10;49.10
43665;DHT22;29263;48.172;11.484;2023-07-09T10:00:52;31.20;48.00
43665;DHT22;29263;48.172;11.484;2023-07-09T10:03:19;31.30;47.40
43665;DHT22;29263;48.172;11.484;2023-07-09T10:05:51;31.40;48.20
43665;DHT22;29263;48.172;11.484;2023-07-09T10:11:10;31.50;48.00
43665;DHT22;29263;48.172;11.484;2023-07-09T10:13:40;31.40;46.60
43665;DHT22;29263;48.172;11.484;2023-07-09T10:16:27;31.30;46.50
43665;DHT22;29263;48.172;11.484;2023-07-09T10:19:04;31.20;46.00
43665;DHT22;29263;48.172;11.484;2023-07-09T10:21:40;31.20;48.20
43665;DHT22;29263;48.172;11.484;2023-07-09T10:24:12;31.20;47.30
43665;DHT22;29263;48.172;11.484;2023-07-09T10:26:47;31.20;47.00
43665;DHT22;29263;48.172;11.484;2023-07-09T10:29:24;31.20;45.90
43665;DHT22;29263;48.172;11.484;2023-07-09T10:39:59;31.20;47.40
43665;DHT22;29263;48.172;11.484;2023-07-09T10:42:35;31.20;47.20
43665;DHT22;29263;48.172;11.484;2023-07-09T10:45:11;31.30;47.50
43665;DHT22;29263;48.172;11.484;2023-07-09T10:47:43;31.40;47.20
43665;DHT22;29263;48.172;11.484;2023-07-09T10:50:17;31.40;47.30
43665;DHT22;29263;48.172;11.484;2023-07-09T10:52:47;31.50;46.50
43665;DHT22;29263;48.172;11.484;2023-07-09T10:55:33;31.60;45.00
43665;DHT22;29263;48.172;11.484;2023-07-09T11:00:44;31.70;46.00
43665;DHT22;29263;48.172;11.484;2023-07-09T11:03:17;31.80;44.70
43665;DHT22;29263;48.172;11.484;2023-07-09T11:05:44;31.90;44.80
43665;DHT22;29263;48.172;11.484;2023-07-09T11:08:20;32.00;44.90
43665;DHT22;29263;48.172;11.484;2023-07-09T11:10:54;32.10;46.80
43665;DHT22;29263;48.172;11.484;2023-07-09T11:13:45;32.10;45.10
43665;DHT22;29263;48.172;11.484;2023-07-09T11:16:18;32.20;44.60
43665;DHT22;29263;48.172;11.484;2023-07-09T11:18:55;32.20;44.70
43665;DHT22;29263;48.172;11.484;2023-07-09T11:21:21;32.40;45.60
43665;DHT22;29263;48.172;11.484;2023-07-09T11:23:51;32.40;42.80
43665;DHT22;29263;48.172;11.484;2023-07-09T11:26:34;32.40;42.70
43665;DHT22;29263;48.172;11.484;2023-07-09T11:31:42;32.40;43.70
43665;DHT22;29263;48.172;11.484;2023-07-09T11:34:17;32.50;42.70
43665;DHT22;29263;48.172;11.484;2023-07-09T11:36:58;32.70;43.20
43665;DHT22;29263;48.172;11.484;2023-07-09T11:39:43;32.80;41.70
43665;DHT22;29263;48.172;11.484;2023-07-09T11:47:37;33.20;42.00
43665;DHT22;29263;48.172;11.484;2023-07-09T11:50:29;33.40;41.40
43665;DHT22;29263;48.172;11.484;2023-07-09T11:52:58;33.50;41.20
43665;DHT22;29263;48.172;11.484;2023-07-09T11:55:31;33.50;40.60
43665;DHT22;29263;48.172;11.484;2023-07-09T11:58:01;33.50;41.40
43665;DHT22;29263;48.172;11.484;2023-07-09T12:00:38;33.60;40.80
43665;DHT22;29263;48.172;11.484;2023-07-09T12:03:06;33.70;41.00
43665;DHT22;29263;48.172;11.484;2023-07-09T12:05:33;33.80;39.20
43665;DHT22;29263;48.172;11.484;2023-07-09T12:07:59;33.90;38.60
43665;DHT22;29263;48.172;11.484;2023-07-09T12:10:28;33.90;38.20
43665;DHT22;29263;48.172;11.484;2023-07-09T12:12:58;33.90;38.50
43665;DHT22;29263;48.172;11.484;2023-07-09T12:15:27;34.00;38.90
43665;DHT22;29263;48.172;11.484;2023-07-09T12:17:59;34.00;38.80
43665;DHT22;29263;48.172;11.484;2023-07-09T12:20:26;34.00;38.70
43665;DHT22;29263;48.172;11.484;2023-07-09T12:22:54;34.00;37.10
43665;DHT22;29263;48.172;11.484;2023-07-09T12:25:25;33.90;38.30
43665;DHT22;29263;48.172;11.484;2023-07-09T12:27:53;33.90;39.10
43665;DHT22;29263;48.172;11.484;2023-07-09T12:30:19;33.90;39.70
43665;DHT22;29263;48.172;11.484;2023-07-09T12:32:47;34.00;38.60
43665;DHT22;29263;48.172;11.484;2023-07-09T12:35:15;34.10;39.00
43665;DHT22;29263;48.172;11.484;2023-07-09T12:37:43;34.30;38.70
43665;DHT22;29263;48.172;11.484;2023-07-09T12:40:15;34.10;38.10
43665;DHT22;29263;48.172;11.484;2023-07-09T12:42:43;34.00;39.10
43665;DHT22;29263;48.172;11.484;2023-07-09T12:45:20;33.90;38.40
43665;DHT22;29263;48.172;11.484;2023-07-09T12:47:47;33.80;38.90
43665;DHT22;29263;48.172;11.484;2023-07-09T12:50:31;33.70;38.90
43665;DHT22;29263;48.172;11.484;2023-07-09T12:53:03;33.70;39.80
43665;DHT22;29263;48.172;11.484;2023-07-09T12:55:29;33.60;39.70
43665;DHT22;29263;48.172;11.484;2023-07-09T12:58:02;33.30;40.50
43665;DHT22;29263;48.172;11.484;2023-07-09T13:00:31;33.30;41.40
43665;DHT22;29263;48.172;11.484;2023-07-09T13:02:58;33.50;39.90
43665;DHT22;29263;48.172;11.484;2023-07-09T13:05:25;33.60;40.30
43665;DHT22;29263;48.172;11.484;2023-07-09T13:07:59;33.70;39.70
43665;DHT22;29263;48.172;11.484;2023-07-09T13:10:29;33.90;38.90
43665;DHT22;29263;48.172;11.484;2023-07-09T13:12:59;33.90;39.00
43665;DHT22;29263;48.172;11.484;2023-07-09T13:15:26;33.90;40.00
43665;DHT22;29263;48.172;11.484;2023-07-09T13:18:00;33.60;40.60
43665;DHT22;29263;48.172;11.484;2023-07-09T13:20:28;33.30;40.50
43665;DHT22;29263;48.172;11.484;2023-07-09T13:22:55;33.10;40.20
43665;DHT22;29263;48.172;11.484;2023-07-09T13:25:21;32.90;41.00
43665;DHT22;29263;48.172;11.484;2023-07-09T13:27:46;32.80;42.20
43665;DHT22;29263;48.172;11.484;2023-07-09T13:30:12;32.70;42.70
43665;DHT22;29263;48.172;11.484;2023-07-09T13:32:38;32.80;42.50
43665;DHT22;29263;48.172;11.484;2023-07-09T13:35:17;32.70;42.00
43665;DHT22;29263;48.172;11.484;2023-07-09T13:37:44;32.80;42.10
43665;DHT22;29263;48.172;11.484;2023-07-09T13:40:14;32.80;41.70
43665;DHT22;29263;48.172;11.484;2023-07-09T13:42:42;33.00;41.60
43665;DHT22;29263;48.172;11.484;2023-07-09T13:45:21;33.00;41.80
43665;DHT22;29263;48.172;11.484;2023-07-09T13:47:48;33.00;41.30
43665;DHT22;29263;48.172;11.484;2023-07-09T13:50:16;32.70;41.50
43665;DHT22;29263;48.172;11.484;2023-07-09T13:52:42;32.70;41.80
43665;DHT22;29263;48.172;11.484;2023-07-09T13:55:20;32.80;42.30
43665;DHT22;29263;48.172;11.484;2023-07-09T13:57:48;32.80;41.70
43665;DHT22;29263;48.172;11.484;2023-07-09T14:00:14;32.90;43.50
43665;DHT22;29263;48.172;11.484;2023-07-09T14:02:40;32.90;43.20
43665;DHT22;29263;48.172;11.484;2023-07-09T14:05:08;32.90;41.50
43665;DHT22;29263;48.172;11.484;2023-07-09T14:07:37;32.90;41.80
43665;DHT22;29263;48.172;11.484;2023-07-09T14:10:06;32.80;42.30
43665;DHT22;29263;48.172;11.484;2023-07-09T14:12:34;32.90;41.60
43665;DHT22;29263;48.172;11.484;2023-07-09T14:15:02;33.00;41.70
43665;DHT22;29263;48.172;11.484;2023-07-09T14:17:28;33.00;40.70
43665;DHT22;29263;48.172;11.484;2023-07-09T14:19:54;33.00;41.80
43665;DHT22;29263;48.172;11.484;2023-07-09T14:22:36;33.10;42.10
43665;DHT22;29263;48.172;11.484;2023-07-09T14:25:03;33.10;40.90
43665;DHT22;29263;48.172;11.484;2023-07-09T14:27:29;33.10;41.50
43665;DHT22;29263;48.172;11.484;2023-07-09T14:29:55;33.10;41.00
43665;DHT22;29263;48.172;11.484;2023-07-09T14:32:30;33.10;42.30
43665;DHT22;29263;48.172;11.484;2023-07-09T14:34:57;33.10;41.10
43665;DHT22;29263;48.172;11.484;2023-07-09T14:37:23;33.10;39.90
43665;DHT22;29263;48.172;11.484;2023-07-09T14:39:49;33.10;41.10
43665;DHT22;29263;48.172;11.484;2023-07-09T14:42:14;33.10;40.90
43665;DHT22;29263;48.172;11.484;2023-07-09T14:44:41;33.20;41.10
43665;DHT22;29263;48.172;11.484;2023-07-09T14:47:15;33.10;39.70
43665;DHT22;29263;48.172;11.484;2023-07-09T14:49:41;33.00;40.90
43665;DHT22;29263;48.172;11.484;2023-07-09T14:52:18;32.80;39.80
43665;DHT22;29263;48.172;11.484;2023-07-09T14:54:45;32.90;40.80
43665;DHT22;29263;48.172;11.484;2023-07-09T14:57:20;33.10;41.80
43665;DHT22;29263;48.172;11.484;2023-07-09T14:59:49;33.40;39.40
43665;DHT22;29263;48.172;11.484;2023-07-09T15:04:58;33.70;39.30
43665;DHT22;29263;48.172;11.484;2023-07-09T15:07:24;33.60;39.50
43665;DHT22;29263;48.172;11.484;2023-07-09T15:09:59;33.60;40.20
43665;DHT22;29263;48.172;11.484;2023-07-09T15:12:30;33.70;40.50
43665;DHT22;29263;48.172;11.484;2023-07-09T15:15:12;33.70;40.70
43665;DHT22;29263;48.172;11.484;2023-07-09T15:17:38;33.60;40.70
43665;DHT22;29263;48.172;11.484;2023-07-09T15:20:04;33.50;40.40
43665;DHT22;29263;48.172;11.484;2023-07-09T15:22:34;33.40;40.20
43665;DHT22;29263;48.172;11.484;2023-07-09T15:25:01;33.30;41.80
43665;DHT22;29263;48.172;11.484;2023-07-09T15:27:27;33.30;40.40
43665;DHT22;29263;48.172;11.484;2023-07-09T15:29:53;33.20;40.90
43665;DHT22;29263;48.172;11.484;2023-07-09T15:32:19;33.20;40.30
43665;DHT22;29263;48.172;11.484;2023-07-09T15:34:44;33.20;40.80
43665;DHT22;29263;48.172;11.484;2023-07-09T15:37:16;33.10;41.00
43665;DHT22;29263;48.172;11.484;2023-07-09T15:39:42;33.20;39.90
43665;DHT22;29263;48.172;11.484;2023-07-09T15:42:12;33.10;40.90
43665;DHT22;29263;48.172;11.484;2023-07-09T15:44:38;33.10;41.40
43665;DHT22;29263;48.172;11.484;2023-07-09T15:47:04;33.00;40.50
43665;DHT22;29263;48.172;11.484;2023-07-09T15:49:32;33.00;40.50
43665;DHT22;29263;48.172;11.484;2023-07-09T15:51:57;33.00;40.40
43665;DHT22;29263;48.172;11.484;2023-07-09T15:54:24;32.80;40.60
43665;DHT22;29263;48.172;11.484;2023-07-09T15:56:51;32.80;40.90
43665;DHT22;29263;48.172;11.484;2023-07-09T15:59:31;32.80;40.90